createdAt,value
2024-03-14T00:08:54.553Z,10.17601588716443
2024-03-14T00:12:19.903Z,10.16783504614094
2024-03-14T00:15:46.361Z,10.177046193372483
2024-03-14T00:20:36.287Z,10.191439020553691
2024-03-14T00:24:00.958Z,10.18940331375839
2024-03-14T00:27:41.105Z,10.197375734060401
2024-03-14T00:31:18.358Z,10.220416054949666
2024-03-14T00:35:02.391Z,10.240219955956375
2024-03-14T00:38:55.735Z,10.234149538590605
2024-03-14T00:43:15.400Z,10.26639576342282
2024-03-14T00:46:46.488Z,10.261575870385904
2024-03-14T00:50:16.300Z,10.269010853607384
2024-03-14T00:53:52.932Z,10.26553193162752
2024-03-14T00:58:40.305Z,10.279389943372482
2024-03-14T01:02:15.069Z,10.304001940016779
2024-03-14T01:05:54.853Z,10.306783504614092
2024-03-14T01:18:36.315Z,10.302016044463087
2024-03-14T01:22:24.476Z,10.32298526635906
2024-03-14T01:35:11.929Z,10.332518875838934
2024-03-14T01:40:08.804Z,10.34530463506711
2024-03-14T01:43:52.520Z,10.361123636744962
2024-03-14T01:47:41.593Z,10.359988464765093
2024-03-14T01:51:13.253Z,10.36081297189597
2024-03-14T01:56:56.145Z,10.356538380872479
2024-03-14T02:00:35.814Z,10.344792103607382
2024-03-14T02:06:32.376Z,10.338320574664426
2024-03-14T02:10:31.748Z,10.3228266568792
2024-03-14T02:16:24.549Z,10.326160077600678
2024-03-14T02:19:57.013Z,10.345131606543625
2024-03-14T02:23:25.935Z,10.350793047399323
2024-03-14T02:26:55.948Z,10.356508231963083
2024-03-14T02:31:49.370Z,10.346438496224831
2024-03-14T02:38:19.561Z,10.355923605285229
2024-03-14T02:44:46.147Z,10.368360685822143
2024-03-14T02:49:50.159Z,10.340516201761744
2024-03-14T02:58:09.258Z,10.332786283557052
2024-03-14T03:01:59.652Z,10.334445784395976
2024-03-14T03:05:27.584Z,10.331120228607379
2024-03-14T03:18:58.147Z,10.33730861996644
2024-03-14T03:22:31.852Z,10.358093015939598
2024-03-14T03:28:06.150Z,10.36525272651007
2024-03-14T03:31:32.435Z,10.36435612416107
2024-03-14T03:34:59.134Z,10.356377149748315
2024-03-14T03:38:26.874Z,10.351407822986577
2024-03-14T03:45:56.452Z,10.34220454068792
2024-03-14T03:53:03.570Z,10.362395134228182
2024-03-14T03:56:34.252Z,10.378887898489916
2024-03-14T04:09:44.083Z,10.405831847734898
2024-03-14T04:13:17.761Z,10.416192585989926
2024-03-14T04:17:09.009Z,10.431257864932881
2024-03-14T04:20:58.297Z,10.439554058305369
2024-03-14T04:24:40.947Z,10.427929687499994
2024-03-14T04:28:22.706Z,10.41750734060402
2024-03-14T04:32:04.610Z,10.412296822567114
2024-03-14T04:36:28.319Z,10.431467596476507
2024-03-14T04:41:48.628Z,10.449484846895977
2024-03-14T04:45:24.126Z,10.449758808724823
2024-03-14T04:48:59.853Z,10.435148385067103
2024-03-14T04:52:33.821Z,10.419220585150994
2024-03-14T04:56:03.571Z,10.427577076342269
2024-03-14T04:59:42.004Z,10.417578124999997
2024-03-14T05:03:12.717Z,10.424939702181193
2024-03-14T05:06:40.353Z,10.436654519714752
2024-03-14T05:10:15.023Z,10.433496749161069
2024-03-14T05:13:46.238Z,10.447399328859047
2024-03-14T05:17:14.082Z,10.516385276845636
2024-03-14T05:22:26.311Z,10.51814308934563
2024-03-14T05:26:41.039Z,10.448113726929519
2024-03-14T05:30:32.742Z,10.418304320469788
2024-03-14T05:34:16.101Z,10.39530070260067
2024-03-14T05:38:00.236Z,10.39106281459731
2024-03-14T05:41:41.747Z,10.414404624580532
2024-03-14T05:45:25.279Z,10.437279781879191
2024-03-14T05:50:55.951Z,10.453817114093956
2024-03-14T05:54:22.096Z,10.461570627097302
2024-03-14T05:58:00.830Z,10.485620281040259
2024-03-14T06:04:47.785Z,10.529422713926161
2024-03-14T06:08:12.049Z,10.53999056208053
2024-03-14T06:15:02.023Z,10.584519190436229
2024-03-14T06:18:31.834Z,10.619655778104017
2024-03-14T06:21:53.054Z,10.643371172399323
2024-03-14T06:25:48.521Z,10.662029414848995
2024-03-14T06:32:09.248Z,10.67192874370804
2024-03-14T06:35:30.911Z,10.704039953859052
2024-03-14T06:39:53.430Z,10.748631501677853
2024-03-14T06:43:20.113Z,10.755582791526846
2024-03-14T06:46:54.379Z,10.772432099412745
2024-03-14T06:50:24.035Z,10.82064675964765
2024-03-14T06:56:22.618Z,10.871353292785221
2024-03-14T06:59:48.464Z,10.890098049496645
2024-03-14T07:04:02.362Z,10.919984794463085
2024-03-14T07:10:31.073Z,10.950880872483214
2024-03-14T07:14:20.941Z,11.005742711828866
2024-03-14T07:18:19.280Z,11.038743970218126
2024-03-14T07:21:56.307Z,11.060687132969793
2024-03-14T07:25:25.101Z,11.08040714135906
2024-03-14T07:38:12.090Z,11.06792418204699
2024-03-14T07:53:38.649Z,11.2607723364094
2024-03-14T07:58:22.330Z,11.343008074664436
2024-03-14T08:01:47.280Z,11.377548238255038
2024-03-14T08:05:12.488Z,11.332750891359058
2024-03-14T08:08:38.710Z,11.308275220218116
2024-03-14T08:12:04.976Z,11.363931417785238
2024-03-14T08:15:32.523Z,11.559870490771816
2024-03-14T08:19:05.178Z,11.797339031040266
2024-03-14T08:22:49.194Z,11.895507812499995
2024-03-14T08:26:15.934Z,11.98400272651006
2024-03-14T08:32:46.218Z,12.480466128355726
2024-03-14T08:36:22.246Z,13.117609584731534
2024-03-14T08:40:01.738Z,13.671479131711413
2024-03-14T08:45:34.578Z,13.843420983640929
2024-03-14T08:49:02.498Z,13.572767669882543
2024-03-14T08:52:50.452Z,13.291566170302014
2024-03-14T09:03:10.432Z,14.393790635486576
2024-03-14T09:06:44.468Z,13.999293466862426
2024-03-14T09:10:51.083Z,13.841444263842295
2024-03-14T09:15:56.174Z,13.821620700503363
2024-03-14T09:19:50.927Z,13.777106491191274
2024-03-14T09:28:31.382Z,13.834209836409398
2024-03-14T09:32:49.261Z,13.85052563968122
2024-03-14T09:36:26.396Z,14.069333315855705
2024-03-14T09:40:06.573Z,14.243466862416106
2024-03-14T09:43:32.972Z,14.225301489093964
2024-03-14T09:47:03.144Z,14.040936975671153
2024-03-14T09:59:24.183Z,14.312829016359055
2024-03-14T10:07:22.035Z,14.476278051593964
2024-03-14T10:11:00.788Z,14.650962143456368
2024-03-14T10:14:29.814Z,14.797335098573821
2024-03-14T10:18:01.043Z,14.84156092701342
2024-03-14T10:21:25.633Z,14.668203387164422
2024-03-14T10:24:51.195Z,14.688084626677838
2024-03-14T10:28:19.254Z,14.886803953439586
2024-03-14T10:31:47.591Z,15.038011220637575
2024-03-14T10:35:16.075Z,15.140535864093966
2024-03-14T10:41:06.502Z,15.385054005872489
2024-03-14T10:44:38.033Z,15.451698825503355
2024-03-14T10:48:06.345Z,15.514554058305379
2024-03-14T10:52:31.791Z,15.653387164429532
2024-03-14T11:00:47.382Z,16.085870648070465
2024-03-14T11:04:17.254Z,16.348091442953027
2024-03-14T11:07:45.093Z,16.497523856963088
2024-03-14T11:11:23.239Z,16.508060245385902
2024-03-14T11:16:10.439Z,16.504312604865763
2024-03-14T11:19:51.165Z,16.540280253775183
2024-03-14T11:23:24.476Z,16.836912751677843
2024-03-14T11:26:51.426Z,16.85846528942954
2024-03-14T11:30:16.561Z,16.858629142197994
2024-03-14T11:33:44.119Z,17.068849622483206
2024-03-14T11:37:13.951Z,16.986672871224823
2024-03-14T11:40:41.347Z,16.858665845218123
2024-03-14T11:44:07.280Z,16.90407272441275
2024-03-14T11:47:36.275Z,16.95108273909395
2024-03-14T11:51:01.561Z,16.991432466442948
2024-03-14T11:54:29.183Z,17.018516673657718
2024-03-14T11:57:57.127Z,16.9568936136745
2024-03-14T12:01:32.358Z,16.99305788590604
2024-03-14T12:05:12.220Z,16.872679844798668
2024-03-14T12:08:38.752Z,16.95561294043625
2024-03-14T12:12:04.711Z,17.05311713506711
2024-03-14T12:15:30.545Z,17.260482644714752
2024-03-14T12:18:57.741Z,17.22282272441274
2024-03-14T12:22:25.388Z,17.408848049496665
2024-03-14T12:25:49.569Z,17.445911545721483
2024-03-14T12:34:25.513Z,17.49971424077181
2024-03-14T12:37:52.401Z,17.582112520973148
2024-03-14T12:47:16.929Z,17.454492187500005
2024-03-14T12:51:02.925Z,17.43664534395974
2024-03-14T12:54:37.577Z,17.39587877516778
2024-03-14T12:58:08.401Z,17.271146182885893
2024-03-14T13:01:47.899Z,17.265154414849007
2024-03-14T13:05:16.297Z,17.34702443372485
2024-03-14T13:12:31.270Z,17.35124265939597
2024-03-14T13:17:55.046Z,17.258471843540264
2024-03-14T13:29:12.185Z,17.228279677013404
2024-03-14T13:32:39.245Z,17.18971660025167
2024-03-14T13:36:19.853Z,17.106208053691258
2024-03-14T13:39:51.046Z,17.06170170931209
2024-03-14T13:43:24.829Z,17.00802092072147
2024-03-14T13:46:50.308Z,17.00237127726511
2024-03-14T13:50:21.711Z,17.037800178271794
2024-03-14T13:54:05.895Z,17.029192009228183
2024-03-14T14:07:25.290Z,17.090166212248317
2024-03-14T14:13:38.109Z,17.024981648489938
2024-03-14T14:17:03.275Z,17.06402841862416
2024-03-14T14:20:24.202Z,17.036891778523483
2024-03-14T14:23:45.142Z,16.989643194211403
2024-03-14T14:27:07.307Z,16.8435245385906
2024-03-14T14:30:30.925Z,16.722303638842288
2024-03-14T14:33:53.419Z,16.63842150796981
2024-03-14T14:37:16.438Z,16.654750419463074
2024-03-14T14:42:44.955Z,16.460265048238252
2024-03-14T14:46:09.081Z,16.47151321308724
2024-03-14T14:49:30.860Z,16.525815331375846
2024-03-14T14:52:53.414Z,16.404226090604045
2024-03-14T15:00:17.910Z,16.22689675964766
2024-03-14T15:03:40.147Z,16.249735213926186
2024-03-14T15:07:02.961Z,16.328090918624163
2024-03-14T15:10:26.947Z,16.33149905620808
2024-03-14T15:13:49.453Z,16.31336514261745
2024-03-14T15:17:13.104Z,16.245855180369148
2024-03-14T15:20:39.189Z,16.193002831375864
2024-03-14T15:24:05.136Z,16.15874842701341
2024-03-14T15:27:31.267Z,16.156205432046963
2024-03-14T15:30:56.940Z,16.18061031879193
2024-03-14T15:35:50.787Z,16.229718959731546
2024-03-14T15:39:22.604Z,16.09701525796979
2024-03-14T15:42:49.775Z,16.086465761325492
2024-03-14T15:46:22.057Z,16.025178271812063
2024-03-14T15:49:49.624Z,15.948095375419467
2024-03-14T15:53:14.200Z,15.838627307046979
2024-03-14T15:56:40.917Z,15.753098783557036
2024-03-14T16:00:04.378Z,15.70760932256713
2024-03-14T16:03:29.365Z,15.667216338087234
2024-03-14T16:06:54.472Z,15.615950083892622
2024-03-14T16:10:17.673Z,15.57423316904362
2024-03-14T16:13:42.321Z,15.518903366191282
2024-03-14T16:17:05.966Z,15.440964502936252
2024-03-14T16:22:44.916Z,15.355530358640944
2024-03-14T16:26:23.630Z,15.276245281040277
2024-03-14T16:38:24.144Z,14.99339345637583
2024-03-14T16:50:21.317Z,14.814588139681199
2024-03-14T16:53:44.201Z,14.77030856753355
2024-03-14T16:57:07.447Z,14.713548657718109
2024-03-14T17:00:31.589Z,14.651984584731535
2024-03-14T17:03:53.787Z,14.570072619546973
2024-03-14T17:07:19.274Z,14.4715368078859
2024-03-14T17:10:40.558Z,14.416846686241621
2024-03-14T17:15:57.060Z,14.324298710151014
2024-03-14T17:19:41.396Z,14.2784854760906
2024-03-14T17:23:09.740Z,14.195397703439598
2024-03-14T17:26:33.372Z,14.138983850671138
2024-03-14T17:29:56.516Z,14.149976405201354
2024-03-14T17:34:02.470Z,14.136883913590614
2024-03-14T17:37:40.289Z,14.110327967701345
2024-03-14T17:41:01.716Z,14.060160182466444
2024-03-14T17:47:02.317Z,13.9591823091443
2024-03-14T17:50:23.537Z,13.916908294882557
2024-03-14T17:53:45.834Z,13.871348049496662
2024-03-14T18:00:25.134Z,13.73096686241609
2024-03-14T18:06:06.984Z,13.693403942953015
2024-03-14T18:11:03.307Z,13.672027055369115
2024-03-14T18:14:26.035Z,13.625580694211397
2024-03-14T18:17:46.357Z,13.571295616610735
2024-03-14T18:21:07.759Z,13.56690698406039
2024-03-14T18:24:31.278Z,13.52384909815436
2024-03-14T18:27:53.292Z,13.480150220218107
2024-03-14T18:34:33.315Z,13.404074035234887
2024-03-14T18:37:55.781Z,13.359681732382542
2024-03-14T18:41:17.348Z,13.326555945889254
2024-03-14T18:44:38.036Z,13.29048998531878
2024-03-14T18:48:01.656Z,13.266401006711405
2024-03-14T18:51:24.080Z,13.24921481753354
2024-03-14T18:54:49.491Z,13.225170406879199
2024-03-14T18:58:10.781Z,13.124423238255023
2024-03-14T19:04:32.191Z,13.027478764681215
2024-03-14T19:07:53.546Z,12.964190960570471
2024-03-14T19:11:14.618Z,12.920560245385907
2024-03-14T19:14:36.349Z,12.928427799916113
2024-03-14T19:17:58.717Z,12.932365509647653
2024-03-14T19:21:19.644Z,12.907212143456379
2024-03-14T19:24:43.548Z,12.909620123741627
2024-03-14T19:28:06.021Z,12.890280253775169
2024-03-14T19:31:28.238Z,12.853419934983224
2024-03-14T19:34:51.385Z,12.864510801174504
2024-03-14T19:38:13.460Z,12.91058095637585
2024-03-14T19:46:06.441Z,12.973982802013436
2024-03-14T19:58:07.905Z,12.805759752516792
2024-03-14T20:10:02.155Z,12.711544410654374
2024-03-14T20:13:23.825Z,12.676305578859065
2024-03-14T20:16:44.365Z,12.655569683305382
2024-03-14T20:20:05.457Z,12.602651793204709
2024-03-14T20:23:27.250Z,12.5953151216443
2024-03-14T20:26:48.530Z,12.581375838926181
2024-03-14T20:30:10.072Z,12.552540373322154
2024-03-14T20:33:31.007Z,12.549106019295307
2024-03-14T20:36:51.757Z,12.53210727768457
2024-03-14T20:45:05.934Z,12.413207843959723
2024-03-14T20:48:28.755Z,12.371426698825486
2024-03-14T20:55:03.725Z,12.316444263842278
2024-03-14T20:59:23.035Z,12.27057335360737
2024-03-14T21:04:50.749Z,12.245349203020124
2024-03-14T21:08:11.804Z,12.241580589345634
2024-03-14T21:11:32.976Z,12.18575922818791
2024-03-14T21:14:54.356Z,12.17403392407718
2024-03-14T21:18:14.421Z,12.16151032927852
2024-03-14T21:26:09.951Z,12.117637111996633
2024-03-14T21:29:30.960Z,12.098556784815429
2024-03-14T21:32:52.273Z,12.07057335360737
2024-03-14T21:36:12.391Z,12.035212615352341
2024-03-14T21:39:53.967Z,12.074889890939593
2024-03-14T21:43:15.141Z,12.092187499999993
2024-03-14T21:46:38.194Z,12.055196098993276
2024-03-14T21:49:59.657Z,12.031761220637568
2024-03-14T21:53:24.842Z,12.025879561661073
2024-03-14T22:07:06.920Z,12.017394609899323
2024-03-14T22:10:29.188Z,12.006877883808714
2024-03-14T22:13:52.382Z,12.003758127097306
2024-03-14T22:17:14.056Z,12.035343697567102
2024-03-14T22:20:35.875Z,12.030455641778516
2024-03-14T22:23:57.999Z,12.046798972315434
2024-03-14T22:27:21.223Z,12.038202600671134
2024-03-14T22:30:50.342Z,12.010092019714753
2024-03-14T22:34:19.475Z,11.983720899748308
2024-03-14T22:37:45.946Z,11.974785025167778
2024-03-14T22:41:10.385Z,11.962595690016755
2024-03-14T22:44:34.099Z,11.963560455117435
2024-03-14T22:48:17.030Z,11.92242161283557
2024-03-14T22:55:58.814Z,11.879671770134223
2024-03-14T22:59:20.910Z,11.855458263422824
2024-03-14T23:02:43.449Z,11.820690016778519
2024-03-14T23:06:04.820Z,11.805741401006719
2024-03-14T23:09:27.801Z,11.813129194630873
2024-03-14T23:12:49.300Z,11.780019138003345
2024-03-14T23:16:16.963Z,11.786958630453038
2024-03-14T23:19:41.451Z,11.787756921140938
2024-03-14T23:23:04.588Z,11.73945574664429
2024-03-14T23:26:33.573Z,11.727722577600671
2024-03-14T23:31:42.169Z,11.746076709312085
2024-03-14T23:35:03.669Z,11.728182676174507
2024-03-14T23:40:57.545Z,11.714492449664432
2024-03-14T23:44:19.039Z,11.708273909395967
2024-03-14T23:47:40.791Z,11.712888003355703
2024-03-14T23:52:16.718Z,11.747049339345633
2024-03-14T23:55:38.419Z,11.754855285234898
2024-03-14T23:58:58.293Z,11.7830654886745
